El Paso International Airport
KELP : now visible

Airfield :











YOU CAN JOIN US ON...

 
LOGIN :

Register | Disclaimer

   EN    FR    IT 

 









Legend :    VFR   Marginal VFR   IFR   Intensive IFR   Very Intensive IFR
Visi :
Ceiling :
>= 8 km
>= 3000ft
5 to 8 km
1000 to 3000 ft
1500m to 5 km
500 to 1000 ft
800 to 1500m
200 to 500 ft
< 800m
< 200 ft
Symbols :   Thunderstorms  Fog  Heavy snow  Heavy precipitations  Wind > 20 kt






- Airport Elevation : 3959 ft
- IATA code : ELP


KELP - El Paso International

CURRENT METAR :
  • 041351Z 07003KT 10SM FEW100 FEW150 OVC220 08/03 A3026 RMK AO2 SLP213 T00780033

EXPIRED METARs :
  • 041251Z 03003KT 10SM FEW150 BKN220 09/04 A3026 RMK AO2 SLP210 T00890039
  • 041151Z 00000KT 10SM FEW150 SCT210 09/04 A3025 RMK AO2 SLP205 T00890039 10133 20089 58008

TAF KELP
Valid from the 04 at 12:00 until the 05 at 12:00 UTC


041127Z 0412/0512 02005KT P6SM BKN150
FM050000 29006KT P6SM OVC100
KZAB FIR / North America



MET'MAP, your aeronautical weather chart ! - Copyright ORBIFLY December 2007 - Disclaimer

ORBIFLY MET'MAP TEAM :

Programming & Development : Alexandra Zaïnal
Original concept : Baudouin d'Aumeries
Technical & hardware support : Manuel Goepfert
Assistance : Marc-Olivier Méhu




SOURCES & CREDITS :

   NOAA       Earth
Advisory